ENG ESP
Escola de Pilots
Telèfon 972234126 972 23 41 26
 
Aerbrava - meteorologia

Informació meteorològica aeronàutica

 

En aquest apartat apareix la informació meteorològica aeronàutica que és utilitzada a les pràctiques dels alumnes de l’Escola de Pilots del nostre centre durant la seva formació, pel que pot no ser actual i s’hauria d’utilitzar pel seu propi compte i risc. AERBRAVA no es fa responsable del seu ús.

 

TEMPS ACTUAL

Satèl·lit Meteorològic

sat24.com

Servei Meteorològic de Catalunya

 

LEGE 252030Z 03015KT 9999 FEW025 OVC040 08/02 Q1013
LEGE 252000Z 02010KT 350V050 9999 OVC039 08/02 Q1013
LEGE 251930Z 04012KT 9999 OVC037 08/02 Q1012
LEGE 251900Z 04014KT 360V060 9999 BKN037 07/02 Q1012
LEGE 251830Z 03015KT 9999 BKN040 08/02 Q1011
LEGE 251800Z 04016KT 010V070 9999 SCT030 BKN045 OVC060 08/03 Q1011
LEGE 251730Z 04014KT 9999 BKN029 OVC035 08/04 Q1010
LEGE 251700Z 04014KT 010V070 9999 BKN029 OVC035 09/03 Q1010
TAF LEGE 251700Z 2518/2618 03007KT 9999 FEW040 TX13/2613Z TN03/2606Z   TEMPO 2610/2612 VRB04KT   BECMG 2612/2614 18009KT

Aviation Weather

 
Aerbrava en el facebook Aerbrava en el twitter Aerbrava instagram Aerbrava en el youtube Aerbrava tumblr Aerbrava flikr Aerbrava pinterest

¡html Vàlid! ¡CSS Vàlid!